NBB weather

Barranco Minas Airport
Barranco Minas, Cundinamarca Department, Colombia

Public forecast

Using degrees Celsius for public forecast. Weather courtesy of forecast.io.

METAR (pilot weather report)

Report is more than 6 hours old.

Closest report is Jorge E. Gonzalez Torres Airport, 178.7 nm (330.9 km) WSW. Retrieved 2019/03/20 14:00 UTC (1 month ago):

SKSJ 201400Z 00000KT 8000 HZ SCT020 XX/XX A2993

TAF (pilot weather forecast)

Closest forecast is El Dorado International Airport, 270.4 nm (500.8 km) WNW. Retrieved 2019/04/22 06:00 UTC (6 hours ago):

TAF SKBO 220500Z 2206/2306 VRB04KT 5000 DZRA BKN012 SCT080 BECMG 2212/2213 9999 NSW SCT016 SCT080 BECMG 2219/2221 28010KT TEMPO 2219/2223 6000 TSRA SCT017CB SCT020 TX20/2218Z TN10/2211Z